sensor_id;sensor_type;location;lat;lon;timestamp;P1;durP1;ratioP1;P2;durP2;ratioP2
53971;SDS011;40530;53.062;6.078;2023-05-10T00:00:52;11.07;;;9.70;;
53971;SDS011;40530;53.062;6.078;2023-05-10T00:03:18;15.02;;;11.60;;
53971;SDS011;40530;53.062;6.078;2023-05-10T00:05:44;16.38;;;11.18;;
53971;SDS011;40530;53.062;6.078;2023-05-10T00:08:10;13.88;;;12.43;;
53971;SDS011;40530;53.062;6.078;2023-05-10T00:10:37;14.88;;;13.07;;
53971;SDS011;40530;53.062;6.078;2023-05-10T00:13:03;14.00;;;12.55;;
53971;SDS011;40530;53.062;6.078;2023-05-10T00:15:29;14.88;;;13.27;;
53971;SDS011;40530;53.062;6.078;2023-05-10T00:17:59;14.65;;;12.35;;
53971;SDS011;40530;53.062;6.078;2023-05-10T00:20:25;13.55;;;11.85;;
53971;SDS011;40530;53.062;6.078;2023-05-10T00:22:51;11.50;;;10.25;;
53971;SDS011;40530;53.062;6.078;2023-05-10T00:25:17;14.20;;;9.95;;
53971;SDS011;40530;53.062;6.078;2023-05-10T00:27:43;10.25;;;8.27;;
53971;SDS011;40530;53.062;6.078;2023-05-10T00:30:09;7.80;;;7.10;;
53971;SDS011;40530;53.062;6.078;2023-05-10T00:32:35;8.43;;;7.38;;
53971;SDS011;40530;53.062;6.078;2023-05-10T00:35:01;9.75;;;7.57;;
53971;SDS011;40530;53.062;6.078;2023-05-10T00:37:27;9.25;;;8.10;;
53971;SDS011;40530;53.062;6.078;2023-05-10T00:39:53;11.13;;;8.45;;
53971;SDS011;40530;53.062;6.078;2023-05-10T00:42:19;9.80;;;8.80;;
53971;SDS011;40530;53.062;6.078;2023-05-10T00:44:45;9.05;;;8.07;;
53971;SDS011;40530;53.062;6.078;2023-05-10T00:47:12;8.80;;;7.90;;
53971;SDS011;40530;53.062;6.078;2023-05-10T00:49:38;7.55;;;6.78;;
53971;SDS011;40530;53.062;6.078;2023-05-10T00:52:04;7.30;;;6.60;;
53971;SDS011;40530;53.062;6.078;2023-05-10T00:54:31;7.32;;;6.60;;
53971;SDS011;40530;53.062;6.078;2023-05-10T00:56:57;7.82;;;7.13;;
53971;SDS011;40530;53.062;6.078;2023-05-10T00:59:23;9.88;;;8.38;;
53971;SDS011;40530;53.062;6.078;2023-05-10T01:01:50;9.18;;;8.27;;
53971;SDS011;40530;53.062;6.078;2023-05-10T01:04:17;8.32;;;7.53;;
53971;SDS011;40530;53.062;6.078;2023-05-10T01:06:46;9.65;;;8.65;;
53971;SDS011;40530;53.062;6.078;2023-05-10T01:09:12;10.43;;;8.18;;
53971;SDS011;40530;53.062;6.078;2023-05-10T01:11:38;10.90;;;8.43;;
53971;SDS011;40530;53.062;6.078;2023-05-10T01:14:05;10.10;;;8.77;;
53971;SDS011;40530;53.062;6.078;2023-05-10T01:16:32;12.60;;;9.30;;
53971;SDS011;40530;53.062;6.078;2023-05-10T01:19:00;11.63;;;9.18;;
53971;SDS011;40530;53.062;6.078;2023-05-10T01:24:26;14.75;;;10.30;;
53971;SDS011;40530;53.062;6.078;2023-05-10T01:32:17;21.95;;;13.00;;
53971;SDS011;40530;53.062;6.078;2023-05-10T01:37:28;22.15;;;13.45;;
53971;SDS011;40530;53.062;6.078;2023-05-10T01:40:17;27.20;;;14.85;;
53971;SDS011;40530;53.062;6.078;2023-05-10T01:42:47;26.58;;;15.80;;
53971;SDS011;40530;53.062;6.078;2023-05-10T01:45:30;26.67;;;16.67;;
53971;SDS011;40530;53.062;6.078;2023-05-10T01:47:58;26.65;;;16.90;;
53971;SDS011;40530;53.062;6.078;2023-05-10T01:50:29;73.22;;;44.63;;
53971;SDS011;40530;53.062;6.078;2023-05-10T01:52:56;39.25;;;23.23;;
53971;SDS011;40530;53.062;6.078;2023-05-10T01:55:24;31.88;;;20.60;;
53971;SDS011;40530;53.062;6.078;2023-05-10T01:57:52;26.10;;;16.23;;
53971;SDS011;40530;53.062;6.078;2023-05-10T02:00:22;26.77;;;16.05;;
53971;SDS011;40530;53.062;6.078;2023-05-10T02:02:48;29.40;;;17.45;;
53971;SDS011;40530;53.062;6.078;2023-05-10T02:05:16;33.22;;;19.42;;
53971;SDS011;40530;53.062;6.078;2023-05-10T02:07:42;33.75;;;18.98;;
53971;SDS011;40530;53.062;6.078;2023-05-10T02:10:09;33.42;;;19.25;;
53971;SDS011;40530;53.062;6.078;2023-05-10T02:12:36;28.52;;;18.00;;
53971;SDS011;40530;53.062;6.078;2023-05-10T02:15:04;28.67;;;18.15;;
53971;SDS011;40530;53.062;6.078;2023-05-10T02:17:34;27.45;;;19.92;;
53971;SDS011;40530;53.062;6.078;2023-05-10T02:20:01;29.60;;;18.88;;
53971;SDS011;40530;53.062;6.078;2023-05-10T02:22:28;28.23;;;18.60;;
53971;SDS011;40530;53.062;6.078;2023-05-10T02:24:55;31.92;;;18.13;;
53971;SDS011;40530;53.062;6.078;2023-05-10T02:27:21;25.23;;;17.25;;
53971;SDS011;40530;53.062;6.078;2023-05-10T02:29:48;28.50;;;18.08;;
53971;SDS011;40530;53.062;6.078;2023-05-10T02:32:15;25.63;;;16.75;;
53971;SDS011;40530;53.062;6.078;2023-05-10T02:34:42;26.65;;;17.02;;
53971;SDS011;40530;53.062;6.078;2023-05-10T02:37:10;25.73;;;16.20;;
53971;SDS011;40530;53.062;6.078;2023-05-10T02:39:36;25.67;;;15.73;;
53971;SDS011;40530;53.062;6.078;2023-05-10T02:42:05;25.75;;;15.77;;
53971;SDS011;40530;53.062;6.078;2023-05-10T02:44:32;30.98;;;15.90;;
53971;SDS011;40530;53.062;6.078;2023-05-10T02:46:59;25.88;;;15.75;;
53971;SDS011;40530;53.062;6.078;2023-05-10T02:49:25;26.13;;;13.80;;
53971;SDS011;40530;53.062;6.078;2023-05-10T02:51:51;23.25;;;13.32;;
53971;SDS011;40530;53.062;6.078;2023-05-10T02:54:24;21.58;;;13.27;;
53971;SDS011;40530;53.062;6.078;2023-05-10T02:56:53;23.73;;;12.57;;
53971;SDS011;40530;53.062;6.078;2023-05-10T02:59:22;25.95;;;13.55;;
53971;SDS011;40530;53.062;6.078;2023-05-10T03:01:48;24.73;;;13.18;;
53971;SDS011;40530;53.062;6.078;2023-05-10T03:04:14;23.58;;;12.05;;
53971;SDS011;40530;53.062;6.078;2023-05-10T03:06:40;21.30;;;12.93;;
53971;SDS011;40530;53.062;6.078;2023-05-10T03:09:06;20.65;;;12.73;;
53971;SDS011;40530;53.062;6.078;2023-05-10T03:14:21;23.48;;;12.82;;
53971;SDS011;40530;53.062;6.078;2023-05-10T03:16:56;23.42;;;12.93;;
53971;SDS011;40530;53.062;6.078;2023-05-10T03:22:17;20.20;;;12.25;;
53971;SDS011;40530;53.062;6.078;2023-05-10T03:24:47;22.10;;;11.40;;
53971;SDS011;40530;53.062;6.078;2023-05-10T03:27:14;20.35;;;12.98;;
53971;SDS011;40530;53.062;6.078;2023-05-10T03:29:41;22.52;;;12.15;;
53971;SDS011;40530;53.062;6.078;2023-05-10T03:32:07;17.38;;;12.80;;
53971;SDS011;40530;53.062;6.078;2023-05-10T03:34:33;19.25;;;12.40;;
53971;SDS011;40530;53.062;6.078;2023-05-10T03:37:01;15.30;;;12.13;;
53971;SDS011;40530;53.062;6.078;2023-05-10T03:39:27;15.30;;;11.52;;
53971;SDS011;40530;53.062;6.078;2023-05-10T03:41:53;14.95;;;11.85;;
53971;SDS011;40530;53.062;6.078;2023-05-10T03:44:19;13.80;;;11.63;;
53971;SDS011;40530;53.062;6.078;2023-05-10T03:46:45;15.25;;;13.20;;
53971;SDS011;40530;53.062;6.078;2023-05-10T03:49:11;13.90;;;11.40;;
53971;SDS011;40530;53.062;6.078;2023-05-10T03:51:37;14.23;;;11.20;;
53971;SDS011;40530;53.062;6.078;2023-05-10T03:54:03;13.93;;;12.38;;
53971;SDS011;40530;53.062;6.078;2023-05-10T03:56:29;12.63;;;11.30;;
53971;SDS011;40530;53.062;6.078;2023-05-10T03:58:55;11.95;;;10.75;;
53971;SDS011;40530;53.062;6.078;2023-05-10T04:01:21;13.15;;;11.73;;
53971;SDS011;40530;53.062;6.078;2023-05-10T04:03:47;12.95;;;10.57;;
53971;SDS011;40530;53.062;6.078;2023-05-10T04:06:13;12.88;;;10.98;;
53971;SDS011;40530;53.062;6.078;2023-05-10T04:08:39;11.95;;;10.75;;
53971;SDS011;40530;53.062;6.078;2023-05-10T04:11:06;10.30;;;9.30;;
53971;SDS011;40530;53.062;6.078;2023-05-10T04:13:32;10.32;;;9.35;;
53971;SDS011;40530;53.062;6.078;2023-05-10T04:15:58;10.18;;;9.18;;
53971;SDS011;40530;53.062;6.078;2023-05-10T04:18:25;9.60;;;8.68;;
53971;SDS011;40530;53.062;6.078;2023-05-10T04:20:51;10.07;;;9.02;;
53971;SDS011;40530;53.062;6.078;2023-05-10T04:23:17;9.50;;;8.50;;
53971;SDS011;40530;53.062;6.078;2023-05-10T04:25:43;8.90;;;8.07;;
53971;SDS011;40530;53.062;6.078;2023-05-10T04:28:09;9.10;;;8.30;;
53971;SDS011;40530;53.062;6.078;2023-05-10T04:30:35;10.20;;;8.45;;
53971;SDS011;40530;53.062;6.078;2023-05-10T04:33:01;7.93;;;7.13;;
53971;SDS011;40530;53.062;6.078;2023-05-10T04:35:27;8.20;;;7.22;;
53971;SDS011;40530;53.062;6.078;2023-05-10T04:37:53;8.65;;;7.85;;
53971;SDS011;40530;53.062;6.078;2023-05-10T04:40:20;8.35;;;7.40;;
53971;SDS011;40530;53.062;6.078;2023-05-10T04:42:46;7.85;;;7.15;;
53971;SDS011;40530;53.062;6.078;2023-05-10T04:45:12;8.40;;;7.55;;
53971;SDS011;40530;53.062;6.078;2023-05-10T04:47:39;9.15;;;7.43;;
53971;SDS011;40530;53.062;6.078;2023-05-10T04:50:06;7.63;;;6.93;;
53971;SDS011;40530;53.062;6.078;2023-05-10T04:52:32;8.82;;;7.55;;
53971;SDS011;40530;53.062;6.078;2023-05-10T04:54:58;8.05;;;7.30;;
53971;SDS011;40530;53.062;6.078;2023-05-10T04:57:24;8.10;;;7.30;;
53971;SDS011;40530;53.062;6.078;2023-05-10T04:59:50;7.93;;;7.30;;
53971;SDS011;40530;53.062;6.078;2023-05-10T05:02:17;7.65;;;6.95;;
53971;SDS011;40530;53.062;6.078;2023-05-10T05:04:43;8.13;;;7.32;;
53971;SDS011;40530;53.062;6.078;2023-05-10T05:07:09;7.20;;;6.60;;
53971;SDS011;40530;53.062;6.078;2023-05-10T05:09:35;7.60;;;6.93;;
53971;SDS011;40530;53.062;6.078;2023-05-10T05:12:01;9.50;;;7.65;;
53971;SDS011;40530;53.062;6.078;2023-05-10T05:14:27;6.80;;;6.18;;
53971;SDS011;40530;53.062;6.078;2023-05-10T05:16:53;6.97;;;6.38;;
53971;SDS011;40530;53.062;6.078;2023-05-10T05:19:19;6.05;;;5.50;;
53971;SDS011;40530;53.062;6.078;2023-05-10T05:21:45;6.57;;;6.05;;
53971;SDS011;40530;53.062;6.078;2023-05-10T05:24:11;5.55;;;5.15;;
53971;SDS011;40530;53.062;6.078;2023-05-10T05:26:37;5.80;;;5.28;;
53971;SDS011;40530;53.062;6.078;2023-05-10T05:29:03;4.88;;;4.47;;
53971;SDS011;40530;53.062;6.078;2023-05-10T05:31:29;5.05;;;4.13;;
53971;SDS011;40530;53.062;6.078;2023-05-10T05:33:55;4.85;;;4.45;;
53971;SDS011;40530;53.062;6.078;2023-05-10T05:36:22;4.50;;;4.10;;
53971;SDS011;40530;53.062;6.078;2023-05-10T05:38:48;4.88;;;4.43;;
53971;SDS011;40530;53.062;6.078;2023-05-10T05:41:14;4.40;;;4.00;;
53971;SDS011;40530;53.062;6.078;2023-05-10T05:43:40;5.00;;;4.38;;
53971;SDS011;40530;53.062;6.078;2023-05-10T05:46:06;3.97;;;3.67;;
53971;SDS011;40530;53.062;6.078;2023-05-10T05:48:32;3.05;;;2.85;;
53971;SDS011;40530;53.062;6.078;2023-05-10T05:50:57;2.05;;;1.92;;
53971;SDS011;40530;53.062;6.078;2023-05-10T05:53:24;2.63;;;1.70;;
53971;SDS011;40530;53.062;6.078;2023-05-10T05:55:53;1.70;;;1.60;;
53971;SDS011;40530;53.062;6.078;2023-05-10T05:58:20;1.40;;;1.30;;
53971;SDS011;40530;53.062;6.078;2023-05-10T06:00:46;6.18;;;4.57;;
53971;SDS011;40530;53.062;6.078;2023-05-10T06:03:12;1.73;;;1.50;;
53971;SDS011;40530;53.062;6.078;2023-05-10T06:05:38;1.98;;;1.70;;
53971;SDS011;40530;53.062;6.078;2023-05-10T06:08:04;2.20;;;2.10;;
53971;SDS011;40530;53.062;6.078;2023-05-10T06:10:30;3.28;;;3.08;;
53971;SDS011;40530;53.062;6.078;2023-05-10T06:12:56;2.95;;;2.70;;
53971;SDS011;40530;53.062;6.078;2023-05-10T06:15:22;4.13;;;3.72;;
53971;SDS011;40530;53.062;6.078;2023-05-10T06:17:48;4.03;;;3.72;;
53971;SDS011;40530;53.062;6.078;2023-05-10T06:20:15;4.65;;;4.25;;
53971;SDS011;40530;53.062;6.078;2023-05-10T06:22:41;4.38;;;3.88;;
53971;SDS011;40530;53.062;6.078;2023-05-10T06:25:07;3.95;;;3.55;;
53971;SDS011;40530;53.062;6.078;2023-05-10T06:27:34;5.28;;;3.25;;
53971;SDS011;40530;53.062;6.078;2023-05-10T06:30:00;3.75;;;3.25;;
53971;SDS011;40530;53.062;6.078;2023-05-10T06:32:26;4.10;;;3.70;;
53971;SDS011;40530;53.062;6.078;2023-05-10T06:34:52;4.03;;;3.50;;
53971;SDS011;40530;53.062;6.078;2023-05-10T06:37:18;4.28;;;3.55;;
53971;SDS011;40530;53.062;6.078;2023-05-10T06:39:44;3.95;;;3.53;;
53971;SDS011;40530;53.062;6.078;2023-05-10T06:42:10;3.55;;;3.25;;
53971;SDS011;40530;53.062;6.078;2023-05-10T06:44:36;3.80;;;3.50;;
53971;SDS011;40530;53.062;6.078;2023-05-10T06:47:02;4.32;;;3.92;;
53971;SDS011;40530;53.062;6.078;2023-05-10T06:49:28;8.88;;;4.20;;
53971;SDS011;40530;53.062;6.078;2023-05-10T06:51:55;4.57;;;4.13;;
53971;SDS011;40530;53.062;6.078;2023-05-10T06:54:21;4.55;;;3.90;;
53971;SDS011;40530;53.062;6.078;2023-05-10T06:56:48;5.95;;;4.00;;
53971;SDS011;40530;53.062;6.078;2023-05-10T06:59:14;8.77;;;4.55;;
53971;SDS011;40530;53.062;6.078;2023-05-10T07:01:41;5.07;;;3.92;;
53971;SDS011;40530;53.062;6.078;2023-05-10T07:04:07;6.47;;;4.07;;
53971;SDS011;40530;53.062;6.078;2023-05-10T07:06:33;5.57;;;3.72;;
53971;SDS011;40530;53.062;6.078;2023-05-10T07:09:00;5.90;;;4.22;;
53971;SDS011;40530;53.062;6.078;2023-05-10T07:11:26;4.65;;;3.65;;
53971;SDS011;40530;53.062;6.078;2023-05-10T07:13:52;3.05;;;2.80;;
53971;SDS011;40530;53.062;6.078;2023-05-10T07:16:18;3.30;;;2.47;;
53971;SDS011;40530;53.062;6.078;2023-05-10T07:18:44;4.70;;;2.38;;
53971;SDS011;40530;53.062;6.078;2023-05-10T07:21:10;2.78;;;2.50;;
53971;SDS011;40530;53.062;6.078;2023-05-10T07:23:36;6.30;;;5.40;;
53971;SDS011;40530;53.062;6.078;2023-05-10T07:26:02;6.47;;;3.00;;
53971;SDS011;40530;53.062;6.078;2023-05-10T07:28:28;3.35;;;2.97;;
53971;SDS011;40530;53.062;6.078;2023-05-10T07:30:54;4.03;;;3.30;;
53971;SDS011;40530;53.062;6.078;2023-05-10T07:33:20;6.18;;;3.65;;
53971;SDS011;40530;53.062;6.078;2023-05-10T07:35:47;4.35;;;3.42;;
53971;SDS011;40530;53.062;6.078;2023-05-10T07:38:13;4.60;;;3.40;;
53971;SDS011;40530;53.062;6.078;2023-05-10T07:40:39;6.18;;;3.25;;
53971;SDS011;40530;53.062;6.078;2023-05-10T07:43:05;7.65;;;3.67;;
53971;SDS011;40530;53.062;6.078;2023-05-10T07:45:32;4.72;;;3.22;;
53971;SDS011;40530;53.062;6.078;2023-05-10T07:47:58;7.93;;;3.80;;
53971;SDS011;40530;53.062;6.078;2023-05-10T07:50:25;6.68;;;3.88;;
53971;SDS011;40530;53.062;6.078;2023-05-10T07:52:51;6.57;;;3.80;;
53971;SDS011;40530;53.062;6.078;2023-05-10T07:55:18;4.13;;;3.50;;
53971;SDS011;40530;53.062;6.078;2023-05-10T07:57:44;5.40;;;3.55;;
53971;SDS011;40530;53.062;6.078;2023-05-10T08:00:12;3.95;;;3.05;;
53971;SDS011;40530;53.062;6.078;2023-05-10T08:02:38;5.22;;;3.45;;
53971;SDS011;40530;53.062;6.078;2023-05-10T08:05:05;7.32;;;3.70;;
53971;SDS011;40530;53.062;6.078;2023-05-10T08:07:31;4.78;;;3.50;;
53971;SDS011;40530;53.062;6.078;2023-05-10T08:09:57;6.68;;;3.20;;
53971;SDS011;40530;53.062;6.078;2023-05-10T08:12:23;5.25;;;3.45;;
53971;SDS011;40530;53.062;6.078;2023-05-10T08:14:49;9.20;;;3.20;;
53971;SDS011;40530;53.062;6.078;2023-05-10T08:17:15;5.13;;;3.25;;
53971;SDS011;40530;53.062;6.078;2023-05-10T08:19:41;4.97;;;3.22;;
53971;SDS011;40530;53.062;6.078;2023-05-10T08:22:07;3.45;;;3.08;;
53971;SDS011;40530;53.062;6.078;2023-05-10T08:24:33;4.25;;;3.00;;
53971;SDS011;40530;53.062;6.078;2023-05-10T08:27:03;4.05;;;3.17;;
53971;SDS011;40530;53.062;6.078;2023-05-10T08:29:29;8.07;;;3.67;;
53971;SDS011;40530;53.062;6.078;2023-05-10T08:31:55;4.00;;;3.08;;
53971;SDS011;40530;53.062;6.078;2023-05-10T08:34:21;5.13;;;3.63;;
53971;SDS011;40530;53.062;6.078;2023-05-10T08:36:47;5.55;;;4.13;;
53971;SDS011;40530;53.062;6.078;2023-05-10T08:39:13;114.07;;;69.25;;
53971;SDS011;40530;53.062;6.078;2023-05-10T08:41:39;22.08;;;16.85;;
53971;SDS011;40530;53.062;6.078;2023-05-10T08:44:05;8.35;;;4.72;;
53971;SDS011;40530;53.062;6.078;2023-05-10T08:46:40;4.70;;;3.97;;
53971;SDS011;40530;53.062;6.078;2023-05-10T08:49:09;5.28;;;3.50;;
53971;SDS011;40530;53.062;6.078;2023-05-10T08:51:40;4.53;;;3.55;;
53971;SDS011;40530;53.062;6.078;2023-05-10T08:54:09;4.22;;;3.33;;
53971;SDS011;40530;53.062;6.078;2023-05-10T08:56:35;4.22;;;3.25;;
53971;SDS011;40530;53.062;6.078;2023-05-10T08:59:02;4.85;;;3.00;;
53971;SDS011;40530;53.062;6.078;2023-05-10T09:01:28;4.18;;;3.20;;
53971;SDS011;40530;53.062;6.078;2023-05-10T09:03:54;3.75;;;2.90;;
53971;SDS011;40530;53.062;6.078;2023-05-10T09:06:20;3.20;;;2.90;;
53971;SDS011;40530;53.062;6.078;2023-05-10T09:08:47;3.80;;;3.38;;
53971;SDS011;40530;53.062;6.078;2023-05-10T09:11:13;5.03;;;3.22;;
53971;SDS011;40530;53.062;6.078;2023-05-10T09:13:39;15.98;;;10.77;;
53971;SDS011;40530;53.062;6.078;2023-05-10T09:16:05;4.82;;;4.32;;
53971;SDS011;40530;53.062;6.078;2023-05-10T09:18:31;7.43;;;4.43;;
53971;SDS011;40530;53.062;6.078;2023-05-10T09:20:57;5.97;;;4.10;;
53971;SDS011;40530;53.062;6.078;2023-05-10T09:23:23;6.05;;;3.90;;
53971;SDS011;40530;53.062;6.078;2023-05-10T09:26:05;7.22;;;4.28;;
53971;SDS011;40530;53.062;6.078;2023-05-10T09:28:32;5.82;;;4.30;;
53971;SDS011;40530;53.062;6.078;2023-05-10T09:30:58;5.35;;;4.15;;
53971;SDS011;40530;53.062;6.078;2023-05-10T09:33:24;10.05;;;8.13;;
53971;SDS011;40530;53.062;6.078;2023-05-10T09:35:51;6.15;;;4.15;;
53971;SDS011;40530;53.062;6.078;2023-05-10T09:38:17;5.38;;;4.78;;
53971;SDS011;40530;53.062;6.078;2023-05-10T09:40:50;8.15;;;4.50;;
53971;SDS011;40530;53.062;6.078;2023-05-10T09:43:19;10.00;;;4.38;;
53971;SDS011;40530;53.062;6.078;2023-05-10T09:45:45;9.75;;;4.60;;
53971;SDS011;40530;53.062;6.078;2023-05-10T09:48:15;5.78;;;4.50;;
53971;SDS011;40530;53.062;6.078;2023-05-10T09:50:41;7.30;;;4.50;;
53971;SDS011;40530;53.062;6.078;2023-05-10T09:53:07;6.57;;;4.22;;
53971;SDS011;40530;53.062;6.078;2023-05-10T09:58:02;5.15;;;4.25;;
53971;SDS011;40530;53.062;6.078;2023-05-10T10:00:34;8.88;;;5.40;;
53971;SDS011;40530;53.062;6.078;2023-05-10T10:03:00;6.25;;;4.72;;
53971;SDS011;40530;53.062;6.078;2023-05-10T10:07:59;5.25;;;4.38;;
53971;SDS011;40530;53.062;6.078;2023-05-10T10:10:25;4.60;;;4.13;;
53971;SDS011;40530;53.062;6.078;2023-05-10T10:12:52;5.70;;;4.80;;
53971;SDS011;40530;53.062;6.078;2023-05-10T10:15:18;5.55;;;4.72;;
53971;SDS011;40530;53.062;6.078;2023-05-10T10:17:45;9.52;;;6.05;;
53971;SDS011;40530;53.062;6.078;2023-05-10T10:20:12;8.88;;;5.85;;
53971;SDS011;40530;53.062;6.078;2023-05-10T10:22:38;11.05;;;5.22;;
53971;SDS011;40530;53.062;6.078;2023-05-10T10:25:04;6.88;;;5.05;;
53971;SDS011;40530;53.062;6.078;2023-05-10T10:35:34;7.70;;;5.70;;
53971;SDS011;40530;53.062;6.078;2023-05-10T10:38:00;9.35;;;5.65;;
53971;SDS011;40530;53.062;6.078;2023-05-10T10:40:33;7.93;;;5.85;;
53971;SDS011;40530;53.062;6.078;2023-05-10T10:46:08;9.63;;;5.90;;
53971;SDS011;40530;53.062;6.078;2023-05-10T10:48:30;9.00;;;6.53;;
53971;SDS011;40530;53.062;6.078;2023-05-10T10:50:57;7.13;;;6.20;;
53971;SDS011;40530;53.062;6.078;2023-05-10T10:53:25;9.00;;;7.28;;
53971;SDS011;40530;53.062;6.078;2023-05-10T10:55:55;8.00;;;6.90;;
53971;SDS011;40530;53.062;6.078;2023-05-10T10:58:30;8.90;;;6.30;;
53971;SDS011;40530;53.062;6.078;2023-05-10T11:01:13;7.85;;;6.10;;
53971;SDS011;40530;53.062;6.078;2023-05-10T11:03:40;8.45;;;5.10;;
53971;SDS011;40530;53.062;6.078;2023-05-10T11:06:06;8.55;;;4.97;;
53971;SDS011;40530;53.062;6.078;2023-05-10T11:08:34;8.43;;;5.28;;
53971;SDS011;40530;53.062;6.078;2023-05-10T11:13:44;6.93;;;5.20;;
53971;SDS011;40530;53.062;6.078;2023-05-10T11:16:21;6.25;;;5.22;;
53971;SDS011;40530;53.062;6.078;2023-05-10T11:18:52;6.32;;;5.10;;
53971;SDS011;40530;53.062;6.078;2023-05-10T11:21:18;6.68;;;5.97;;
53971;SDS011;40530;53.062;6.078;2023-05-10T11:26:14;7.60;;;5.43;;
53971;SDS011;40530;53.062;6.078;2023-05-10T11:28:41;7.13;;;5.88;;
53971;SDS011;40530;53.062;6.078;2023-05-10T11:31:07;7.30;;;6.10;;
53971;SDS011;40530;53.062;6.078;2023-05-10T11:33:42;6.97;;;6.20;;
53971;SDS011;40530;53.062;6.078;2023-05-10T11:36:10;7.40;;;6.25;;
53971;SDS011;40530;53.062;6.078;2023-05-10T11:38:36;7.50;;;5.22;;
53971;SDS011;40530;53.062;6.078;2023-05-10T11:41:02;8.32;;;5.60;;
53971;SDS011;40530;53.062;6.078;2023-05-10T11:43:28;7.18;;;5.57;;
53971;SDS011;40530;53.062;6.078;2023-05-10T11:45:55;7.45;;;6.10;;
53971;SDS011;40530;53.062;6.078;2023-05-10T11:48:21;6.68;;;5.90;;
53971;SDS011;40530;53.062;6.078;2023-05-10T11:50:49;9.00;;;6.38;;
53971;SDS011;40530;53.062;6.078;2023-05-10T11:53:15;8.25;;;6.03;;
53971;SDS011;40530;53.062;6.078;2023-05-10T11:55:41;6.68;;;5.97;;
53971;SDS011;40530;53.062;6.078;2023-05-10T11:58:07;10.02;;;6.88;;
53971;SDS011;40530;53.062;6.078;2023-05-10T12:00:33;7.93;;;7.13;;
53971;SDS011;40530;53.062;6.078;2023-05-10T12:03:00;7.63;;;6.80;;
53971;SDS011;40530;53.062;6.078;2023-05-10T12:05:26;10.52;;;7.25;;
53971;SDS011;40530;53.062;6.078;2023-05-10T12:07:52;11.75;;;8.23;;
53971;SDS011;40530;53.062;6.078;2023-05-10T12:10:18;10.90;;;8.73;;
53971;SDS011;40530;53.062;6.078;2023-05-10T12:12:51;9.98;;;7.45;;
53971;SDS011;40530;53.062;6.078;2023-05-10T12:17:44;8.82;;;7.03;;
53971;SDS011;40530;53.062;6.078;2023-05-10T12:20:14;7.85;;;6.80;;
53971;SDS011;40530;53.062;6.078;2023-05-10T12:22:43;9.32;;;6.68;;
53971;SDS011;40530;53.062;6.078;2023-05-10T12:25:09;8.25;;;7.10;;
53971;SDS011;40530;53.062;6.078;2023-05-10T12:27:35;9.45;;;7.45;;
53971;SDS011;40530;53.062;6.078;2023-05-10T12:30:02;7.70;;;6.80;;
53971;SDS011;40530;53.062;6.078;2023-05-10T12:32:41;11.45;;;6.25;;
53971;SDS011;40530;53.062;6.078;2023-05-10T12:35:07;6.97;;;6.28;;
53971;SDS011;40530;53.062;6.078;2023-05-10T12:37:34;6.57;;;5.82;;
53971;SDS011;40530;53.062;6.078;2023-05-10T12:40:04;6.82;;;5.60;;
53971;SDS011;40530;53.062;6.078;2023-05-10T12:42:31;5.60;;;4.82;;
53971;SDS011;40530;53.062;6.078;2023-05-10T12:44:57;7.68;;;5.50;;
53971;SDS011;40530;53.062;6.078;2023-05-10T12:47:23;6.85;;;4.97;;
53971;SDS011;40530;53.062;6.078;2023-05-10T12:49:49;7.18;;;4.70;;
53971;SDS011;40530;53.062;6.078;2023-05-10T12:52:16;5.68;;;4.45;;
53971;SDS011;40530;53.062;6.078;2023-05-10T12:54:42;5.70;;;4.78;;
53971;SDS011;40530;53.062;6.078;2023-05-10T12:57:08;6.55;;;4.57;;
53971;SDS011;40530;53.062;6.078;2023-05-10T12:59:34;6.78;;;4.38;;
53971;SDS011;40530;53.062;6.078;2023-05-10T13:02:00;4.38;;;3.97;;
53971;SDS011;40530;53.062;6.078;2023-05-10T13:04:26;4.97;;;4.47;;
53971;SDS011;40530;53.062;6.078;2023-05-10T13:06:52;5.50;;;3.95;;
53971;SDS011;40530;53.062;6.078;2023-05-10T13:09:20;5.88;;;4.18;;
53971;SDS011;40530;53.062;6.078;2023-05-10T13:11:46;4.40;;;4.00;;
53971;SDS011;40530;53.062;6.078;2023-05-10T13:14:13;6.07;;;4.20;;
53971;SDS011;40530;53.062;6.078;2023-05-10T13:16:39;4.20;;;3.80;;
53971;SDS011;40530;53.062;6.078;2023-05-10T13:19:05;3.70;;;3.40;;
53971;SDS011;40530;53.062;6.078;2023-05-10T13:21:31;4.65;;;3.67;;
53971;SDS011;40530;53.062;6.078;2023-05-10T13:23:57;3.65;;;3.35;;
53971;SDS011;40530;53.062;6.078;2023-05-10T13:26:23;4.05;;;3.65;;
53971;SDS011;40530;53.062;6.078;2023-05-10T13:28:50;6.53;;;4.65;;
53971;SDS011;40530;53.062;6.078;2023-05-10T13:31:16;5.03;;;4.45;;
53971;SDS011;40530;53.062;6.078;2023-05-10T13:33:42;5.28;;;3.90;;
53971;SDS011;40530;53.062;6.078;2023-05-10T13:36:08;5.75;;;4.55;;
53971;SDS011;40530;53.062;6.078;2023-05-10T13:38:34;5.18;;;4.68;;
53971;SDS011;40530;53.062;6.078;2023-05-10T13:41:01;5.43;;;4.43;;
53971;SDS011;40530;53.062;6.078;2023-05-10T13:43:27;4.65;;;4.15;;
53971;SDS011;40530;53.062;6.078;2023-05-10T13:45:53;5.90;;;4.90;;
53971;SDS011;40530;53.062;6.078;2023-05-10T13:48:19;7.03;;;4.55;;
53971;SDS011;40530;53.062;6.078;2023-05-10T13:50:45;4.78;;;4.30;;
53971;SDS011;40530;53.062;6.078;2023-05-10T13:53:11;6.28;;;4.88;;
53971;SDS011;40530;53.062;6.078;2023-05-10T13:55:37;5.28;;;4.20;;
53971;SDS011;40530;53.062;6.078;2023-05-10T13:58:03;7.60;;;4.00;;
53971;SDS011;40530;53.062;6.078;2023-05-10T14:00:29;6.38;;;4.47;;
53971;SDS011;40530;53.062;6.078;2023-05-10T14:02:56;7.10;;;5.38;;
53971;SDS011;40530;53.062;6.078;2023-05-10T14:05:22;9.20;;;6.70;;
53971;SDS011;40530;53.062;6.078;2023-05-10T14:07:48;10.95;;;7.00;;
53971;SDS011;40530;53.062;6.078;2023-05-10T14:10:14;9.40;;;7.15;;
53971;SDS011;40530;53.062;6.078;2023-05-10T14:12:40;7.65;;;6.07;;
53971;SDS011;40530;53.062;6.078;2023-05-10T14:15:06;9.95;;;6.53;;
53971;SDS011;40530;53.062;6.078;2023-05-10T14:17:32;8.88;;;5.35;;
53971;SDS011;40530;53.062;6.078;2023-05-10T14:19:58;8.13;;;5.07;;
53971;SDS011;40530;53.062;6.078;2023-05-10T14:22:24;6.63;;;4.90;;
53971;SDS011;40530;53.062;6.078;2023-05-10T14:24:50;4.45;;;4.00;;
53971;SDS011;40530;53.062;6.078;2023-05-10T14:27:16;7.60;;;5.18;;
53971;SDS011;40530;53.062;6.078;2023-05-10T14:29:42;3.78;;;2.95;;
53971;SDS011;40530;53.062;6.078;2023-05-10T14:32:08;6.32;;;2.95;;
53971;SDS011;40530;53.062;6.078;2023-05-10T14:34:35;4.35;;;3.05;;
53971;SDS011;40530;53.062;6.078;2023-05-10T14:37:01;5.63;;;3.25;;
53971;SDS011;40530;53.062;6.078;2023-05-10T14:39:27;4.45;;;3.47;;
53971;SDS011;40530;53.062;6.078;2023-05-10T14:41:56;6.18;;;4.72;;
53971;SDS011;40530;53.062;6.078;2023-05-10T14:44:23;6.53;;;5.28;;
53971;SDS011;40530;53.062;6.078;2023-05-10T14:46:50;6.88;;;5.35;;
53971;SDS011;40530;53.062;6.078;2023-05-10T14:49:16;8.30;;;6.10;;
53971;SDS011;40530;53.062;6.078;2023-05-10T14:51:42;7.05;;;6.30;;
53971;SDS011;40530;53.062;6.078;2023-05-10T14:54:09;9.77;;;7.22;;
53971;SDS011;40530;53.062;6.078;2023-05-10T14:56:35;7.63;;;6.70;;
53971;SDS011;40530;53.062;6.078;2023-05-10T14:59:02;8.38;;;6.63;;
53971;SDS011;40530;53.062;6.078;2023-05-10T15:01:29;7.78;;;6.53;;
53971;SDS011;40530;53.062;6.078;2023-05-10T15:03:56;6.30;;;5.70;;
53971;SDS011;40530;53.062;6.078;2023-05-10T15:06:22;5.95;;;5.30;;
53971;SDS011;40530;53.062;6.078;2023-05-10T15:08:50;6.50;;;5.85;;
53971;SDS011;40530;53.062;6.078;2023-05-10T15:11:16;6.00;;;5.20;;
53971;SDS011;40530;53.062;6.078;2023-05-10T15:13:42;5.53;;;4.85;;
53971;SDS011;40530;53.062;6.078;2023-05-10T15:16:08;4.60;;;4.18;;
53971;SDS011;40530;53.062;6.078;2023-05-10T15:18:35;4.72;;;4.32;;